Airfield :
LOGIN :

Register | Disclaimer

   EN    FR    IT 

 










Legend :    VFR   Marginal VFR   IFR   Intensive IFR   Very Intensive IFR
Visi :
Ceiling :
>= 8 km
>= 3000ft
5 to 8 km
1000 to 3000 ft
1500m to 5 km
500 to 1000 ft
800 to 1500m
200 to 500 ft
< 800m
< 200 ft
Symbols :   Thunderstorms  Fog  Heavy snow  Heavy precipitations  Wind > 20 kt
SIGMETs :     Misc.  Thunderstorms  Icing  Turbulence  Mountain Waves  Volcanic Ashes






- Airport Elevation : 1411 ft
- IATA code : ZHI


LSZG - Grenchen

CURRENT METAR :
  • 280620Z 22003KT 9999 FEW005 SCT015 BKN017 07/07 Q1011 NOSIG

EXPIRED METARs :
  • 280550Z 21003KT 9999 FEW009 BKN022 OVC030 07/07 Q1010 NOSIG
  • 280520Z AUTO 21003KT 9999 BKN010 OVC032 07/06 Q1010
  • 280450Z AUTO 20002KT 9999 OVC010 07/07 Q1010
  • 280420Z AUTO 01001KT 9999 OVC012 07/06 Q1010
  • 280350Z AUTO 02001KT 9999 FEW044 SCT075 07/06 Q1010

TAF TAF LSZG
Valid from the 28 at 06:00 until the 28 at 15:00 UTC


280525Z 2806/2815 VRB05KT 9999 BKN010
PROB30
TEMPO 2806/2809 6000 -DZ
BECMG 2808/2811 9999 BKN045
ATIS : +41 32 396 96 33



MET'MAP, your aeronautical weather chart ! - Copyright ORBIFLY December 2007 - Disclaimer

ORBIFLY MET'MAP TEAM :

Programming & Development : Alexandra Zaïnal
Concept & original design : Baudouin d'Aumeries
Assistance for programming : Marc-Olivier Méhu
Technical & hardware support : Manuel Goepfert

Contact : metmap@orbifly.com




SOURCES & CREDITS :

   NOAA